createdAt,value
2023-02-22T00:00:59.969Z,12.35
2023-02-22T00:03:32.455Z,9.85
2023-02-22T00:06:02.741Z,7.93
2023-02-22T00:08:31.783Z,4.78
2023-02-22T00:11:00.221Z,6.97
2023-02-22T00:13:29.697Z,8.68
2023-02-22T00:15:58.006Z,12.00
2023-02-22T00:18:28.010Z,6.78
2023-02-22T00:21:00.000Z,5.40
2023-02-22T00:23:29.698Z,5.32
2023-02-22T00:25:58.587Z,6.85
2023-02-22T00:28:26.639Z,7.30
2023-02-22T00:30:55.398Z,5.28
2023-02-22T00:33:23.838Z,3.90
2023-02-22T00:35:52.188Z,5.18
2023-02-22T00:38:21.500Z,7.05
2023-02-22T00:40:49.716Z,6.30
2023-02-22T00:43:17.832Z,5.13
2023-02-22T00:45:46.074Z,4.35
2023-02-22T00:48:14.151Z,3.75
2023-02-22T00:50:42.482Z,3.80
2023-02-22T00:53:11.560Z,9.10
2023-02-22T00:55:41.124Z,5.50
2023-02-22T00:58:09.060Z,3.92
2023-02-22T01:00:38.298Z,2.72
2023-02-22T01:03:06.533Z,3.17
2023-02-22T01:05:35.054Z,6.22
2023-02-22T01:08:03.720Z,3.83
2023-02-22T01:10:32.426Z,3.83
2023-02-22T01:13:02.036Z,3.95
2023-02-22T01:15:31.034Z,2.95
2023-02-22T01:17:59.698Z,7.88
2023-02-22T01:20:28.367Z,4.53
2023-02-22T01:22:57.262Z,5.00
2023-02-22T01:25:26.191Z,6.28
2023-02-22T01:27:54.933Z,8.57
2023-02-22T01:30:25.733Z,5.93
2023-02-22T01:32:53.701Z,14.00
2023-02-22T01:35:23.236Z,6.90
2023-02-22T01:37:51.270Z,16.98
2023-02-22T01:40:21.835Z,11.93
2023-02-22T01:42:52.350Z,14.75
2023-02-22T01:45:41.272Z,11.63
2023-02-22T01:48:12.864Z,8.63
2023-02-22T01:50:43.061Z,6.22
2023-02-22T01:53:12.681Z,5.97
2023-02-22T01:55:41.188Z,5.40
2023-02-22T01:58:09.395Z,4.13
2023-02-22T02:00:40.015Z,5.23
2023-02-22T02:03:11.334Z,5.22
2023-02-22T02:05:41.927Z,8.73
2023-02-22T02:08:14.652Z,6.30
2023-02-22T02:10:43.078Z,4.90
2023-02-22T02:13:13.750Z,5.97
2023-02-22T02:15:41.924Z,5.53
2023-02-22T02:18:10.983Z,7.35
2023-02-22T02:20:45.448Z,5.75
2023-02-22T02:23:25.028Z,3.22
2023-02-22T02:26:09.252Z,5.75
2023-02-22T02:29:03.726Z,5.95
2023-02-22T02:31:45.051Z,4.28
2023-02-22T02:34:20.489Z,8.73
2023-02-22T02:36:51.539Z,5.25
2023-02-22T02:39:21.732Z,4.10
2023-02-22T02:41:52.151Z,5.60
2023-02-22T02:44:25.082Z,6.88
2023-02-22T02:46:56.276Z,4.18
2023-02-22T02:49:28.656Z,3.97
2023-02-22T02:51:57.590Z,6.90
2023-02-22T02:54:26.016Z,6.70
2023-02-22T02:56:54.363Z,7.78
2023-02-22T02:59:26.832Z,5.40
2023-02-22T03:02:03.321Z,4.75
2023-02-22T03:04:42.600Z,5.15
2023-02-22T03:07:21.744Z,7.90
2023-02-22T03:09:58.523Z,4.45
2023-02-22T03:12:34.256Z,6.25
2023-02-22T03:15:07.808Z,4.47
2023-02-22T03:17:41.516Z,6.65
2023-02-22T03:20:13.828Z,4.90
2023-02-22T03:22:44.246Z,5.15
2023-02-22T03:25:15.647Z,5.82
2023-02-22T03:27:45.034Z,5.63
2023-02-22T03:34:06.425Z,5.10
2023-02-22T03:36:39.115Z,4.60
2023-02-22T03:39:08.792Z,4.57
2023-02-22T03:41:39.826Z,3.55
2023-02-22T03:44:09.792Z,2.85
2023-02-22T03:46:40.163Z,3.85
2023-02-22T03:49:11.861Z,3.65
2023-02-22T03:51:41.729Z,4.97
2023-02-22T03:54:16.326Z,3.40
2023-02-22T03:56:47.540Z,4.68
2023-02-22T03:59:15.947Z,5.15
2023-02-22T04:01:44.004Z,3.42
2023-02-22T04:04:12.324Z,3.15
2023-02-22T04:06:41.854Z,3.03
2023-02-22T04:09:10.100Z,4.60
2023-02-22T04:11:38.313Z,5.60
2023-02-22T04:14:06.520Z,4.77
2023-02-22T04:16:34.419Z,5.80
2023-02-22T04:19:06.489Z,4.65
2023-02-22T04:21:34.394Z,6.15
2023-02-22T04:24:04.018Z,5.68
2023-02-22T04:26:31.911Z,7.18
2023-02-22T04:29:00.429Z,6.97
2023-02-22T04:31:28.637Z,5.78
2023-02-22T04:33:56.850Z,5.83
2023-02-22T04:36:25.261Z,5.32
2023-02-22T04:38:53.558Z,5.90
2023-02-22T04:41:25.256Z,7.60
2023-02-22T04:43:54.127Z,5.18
2023-02-22T04:46:22.212Z,6.60
2023-02-22T04:48:50.424Z,6.57
2023-02-22T04:51:20.042Z,7.32
2023-02-22T04:53:48.233Z,9.68
2023-02-22T04:56:18.439Z,10.63
2023-02-22T04:58:48.083Z,11.18
2023-02-22T05:01:16.608Z,10.90
2023-02-22T05:03:45.658Z,10.15
2023-02-22T05:06:13.631Z,12.02
2023-02-22T05:08:43.866Z,9.57
2023-02-22T05:11:11.844Z,9.05
2023-02-22T05:13:40.094Z,7.95
2023-02-22T05:16:09.607Z,9.43
2023-02-22T05:18:37.810Z,10.10
2023-02-22T05:21:07.135Z,7.45
2023-02-22T05:23:35.799Z,7.57
2023-02-22T05:26:03.686Z,12.13
2023-02-22T05:28:32.401Z,8.98
2023-02-22T05:31:01.085Z,8.38
2023-02-22T05:33:30.677Z,10.30
2023-02-22T05:35:58.639Z,8.52
2023-02-22T05:38:27.985Z,7.90
2023-02-22T05:40:57.886Z,8.25
2023-02-22T05:43:26.127Z,11.85
2023-02-22T05:45:54.200Z,8.90
2023-02-22T05:48:22.799Z,8.15
2023-02-22T05:50:52.103Z,12.20
2023-02-22T05:53:20.449Z,8.70
2023-02-22T05:55:48.364Z,8.35
2023-02-22T05:58:16.805Z,14.90
2023-02-22T06:00:44.834Z,14.20
2023-02-22T06:03:13.682Z,10.57
2023-02-22T06:05:42.004Z,10.83
2023-02-22T06:08:11.645Z,12.13
2023-02-22T06:10:40.205Z,10.15
2023-02-22T06:13:11.561Z,9.38
2023-02-22T06:15:39.460Z,14.60
2023-02-22T06:18:07.738Z,12.93
2023-02-22T06:20:35.674Z,10.15
2023-02-22T06:23:03.931Z,11.98
2023-02-22T06:25:33.522Z,10.80
2023-02-22T06:28:02.001Z,12.55
2023-02-22T06:30:30.462Z,17.67
2023-02-22T06:32:58.716Z,14.32
2023-02-22T06:35:27.010Z,15.30
2023-02-22T06:37:55.412Z,12.53
2023-02-22T06:40:23.351Z,17.10
2023-02-22T06:42:53.723Z,14.60
2023-02-22T06:45:22.162Z,12.85
2023-02-22T06:47:50.650Z,15.88
2023-02-22T06:50:20.153Z,12.48
2023-02-22T06:52:48.956Z,15.05
2023-02-22T06:55:22.301Z,12.67
2023-02-22T06:57:51.080Z,9.60
2023-02-22T07:00:21.261Z,7.70
2023-02-22T07:02:49.506Z,5.38
2023-02-22T07:05:18.653Z,7.40
2023-02-22T07:07:46.583Z,6.82
2023-02-22T07:10:18.585Z,6.95
2023-02-22T07:12:46.744Z,4.18
2023-02-22T07:15:18.120Z,4.75
2023-02-22T07:17:47.433Z,8.93
2023-02-22T07:20:15.622Z,11.98
2023-02-22T07:22:43.544Z,8.15
2023-02-22T07:25:12.608Z,9.27
2023-02-22T07:27:41.567Z,5.13
2023-02-22T07:30:17.155Z,6.57
2023-02-22T07:32:45.467Z,5.78
2023-02-22T07:35:18.941Z,4.60
2023-02-22T07:37:48.291Z,4.88
2023-02-22T07:40:16.832Z,4.38
2023-02-22T07:42:54.768Z,9.48
2023-02-22T07:45:25.790Z,10.88
2023-02-22T07:47:53.921Z,11.75
2023-02-22T07:50:24.690Z,15.18
2023-02-22T07:52:55.290Z,8.90
2023-02-22T07:55:24.287Z,6.95
2023-02-22T07:57:52.911Z,6.72
2023-02-22T08:00:23.876Z,9.82
2023-02-22T08:02:51.997Z,7.18
2023-02-22T08:05:20.737Z,8.27
2023-02-22T08:07:50.035Z,16.02
2023-02-22T08:10:19.231Z,19.65
2023-02-22T08:12:47.168Z,11.57
2023-02-22T08:15:17.330Z,9.23
2023-02-22T08:17:45.222Z,10.85
2023-02-22T08:20:13.561Z,11.52
2023-02-22T08:22:46.685Z,8.55
2023-02-22T08:25:17.033Z,14.65
2023-02-22T08:27:45.557Z,7.45
2023-02-22T08:30:15.752Z,9.65
2023-02-22T08:32:44.297Z,8.98
2023-02-22T08:35:14.604Z,11.82
2023-02-22T08:37:43.510Z,15.70
2023-02-22T08:40:14.927Z,13.40
2023-02-22T08:42:44.382Z,13.90
2023-02-22T08:45:13.433Z,11.52
2023-02-22T08:47:41.649Z,11.05
2023-02-22T08:50:10.803Z,10.82
2023-02-22T08:52:38.770Z,7.35
2023-02-22T08:55:07.657Z,7.43
2023-02-22T08:57:35.548Z,9.35
2023-02-22T09:00:05.659Z,7.22
2023-02-22T09:02:33.548Z,6.07
2023-02-22T09:05:01.897Z,5.35
2023-02-22T09:07:30.125Z,6.57
2023-02-22T09:09:58.320Z,6.47
2023-02-22T09:12:26.376Z,4.78
2023-02-22T09:14:54.577Z,4.55
2023-02-22T09:17:23.951Z,3.53
2023-02-22T09:19:52.280Z,6.40
2023-02-22T09:22:20.204Z,6.30
2023-02-22T09:24:48.404Z,5.03
2023-02-22T09:27:20.166Z,6.00
2023-02-22T09:29:49.672Z,8.43
2023-02-22T09:32:18.703Z,5.10
2023-02-22T09:37:17.807Z,5.32
2023-02-22T09:39:46.345Z,6.03
2023-02-22T09:42:17.381Z,8.80
2023-02-22T09:44:49.270Z,8.13
2023-02-22T09:47:20.097Z,10.02
2023-02-22T09:49:57.480Z,10.70
2023-02-22T09:52:31.401Z,9.13
2023-02-22T09:55:10.441Z,7.28
2023-02-22T09:57:43.649Z,6.25
2023-02-22T10:00:17.026Z,8.88
2023-02-22T10:02:48.353Z,7.22
2023-02-22T10:05:19.766Z,5.90
2023-02-22T10:07:54.483Z,7.07
2023-02-22T10:10:24.722Z,8.38
2023-02-22T10:15:31.453Z,9.68
2023-02-22T10:18:05.141Z,6.55
2023-02-22T10:20:41.068Z,5.55
2023-02-22T10:23:16.352Z,7.15
2023-02-22T10:25:45.327Z,5.18
2023-02-22T10:28:16.942Z,6.82
2023-02-22T10:30:49.571Z,5.72
2023-02-22T10:33:20.010Z,6.05
2023-02-22T10:35:48.661Z,4.20
2023-02-22T10:38:20.505Z,4.32
2023-02-22T10:40:51.467Z,5.57
2023-02-22T10:43:20.040Z,3.83
2023-02-22T10:45:48.338Z,5.10
2023-02-22T10:48:19.715Z,4.95
2023-02-22T10:50:48.763Z,5.65
2023-02-22T10:53:16.642Z,4.63
2023-02-22T10:56:03.490Z,3.10
2023-02-22T10:58:40.793Z,4.38
2023-02-22T11:01:19.571Z,6.80
2023-02-22T11:03:57.094Z,3.92
2023-02-22T11:06:27.037Z,3.75
2023-02-22T11:09:05.499Z,4.07
2023-02-22T11:11:34.157Z,3.67
2023-02-22T11:14:06.776Z,4.85
2023-02-22T11:16:38.506Z,3.72
2023-02-22T11:19:11.997Z,2.42
2023-02-22T11:21:40.895Z,3.67
2023-02-22T11:24:10.421Z,5.00
2023-02-22T11:26:41.282Z,4.57
2023-02-22T11:29:15.633Z,3.88
2023-02-22T11:31:44.814Z,5.10
2023-02-22T11:34:27.024Z,6.00
2023-02-22T11:36:55.228Z,3.78
2023-02-22T11:39:24.522Z,6.00
2023-02-22T11:41:52.866Z,5.47
2023-02-22T11:44:26.654Z,9.25
2023-02-22T11:46:57.168Z,8.70
2023-02-22T11:49:26.232Z,7.65
2023-02-22T11:52:03.353Z,4.97
2023-02-22T11:54:57.960Z,8.27
2023-02-22T11:57:46.549Z,5.35
2023-02-22T12:00:24.925Z,5.88
2023-02-22T12:02:58.501Z,8.18
2023-02-22T12:05:37.329Z,10.43
2023-02-22T12:08:19.632Z,16.52
2023-02-22T12:10:57.351Z,12.88
2023-02-22T12:13:36.804Z,6.55
2023-02-22T12:16:13.126Z,6.40
2023-02-22T12:18:47.966Z,8.18
2023-02-22T12:21:18.415Z,10.85
2023-02-22T12:23:50.722Z,8.73
2023-02-22T12:26:22.826Z,6.68
2023-02-22T12:28:59.295Z,9.57
2023-02-22T12:31:33.894Z,7.07
2023-02-22T12:34:07.783Z,9.73
2023-02-22T12:36:39.486Z,7.45
2023-02-22T12:39:21.984Z,8.30
2023-02-22T12:41:52.899Z,11.70
2023-02-22T12:44:23.197Z,6.03
2023-02-22T12:46:54.407Z,5.63
2023-02-22T12:49:28.196Z,4.43
2023-02-22T12:52:01.468Z,5.38
2023-02-22T12:54:42.496Z,7.25
2023-02-22T12:57:12.964Z,42.58
2023-02-22T12:59:45.948Z,20.27
2023-02-22T13:02:18.845Z,14.05
2023-02-22T13:04:47.523Z,23.10
2023-02-22T13:07:26.833Z,29.30
2023-02-22T13:10:09.006Z,12.02
2023-02-22T13:12:42.601Z,8.20
2023-02-22T13:15:15.792Z,4.05
2023-02-22T13:17:49.916Z,5.20
2023-02-22T13:20:22.429Z,4.25
2023-02-22T13:22:55.715Z,6.05
2023-02-22T13:25:27.032Z,59.10
2023-02-22T13:27:56.943Z,32.55
2023-02-22T13:30:28.636Z,36.70
2023-02-22T13:33:14.834Z,16.42
2023-02-22T13:35:53.909Z,8.02
2023-02-22T13:38:36.567Z,8.43
2023-02-22T13:41:31.842Z,18.02
2023-02-22T13:44:14.484Z,6.03
2023-02-22T13:46:55.073Z,7.35
2023-02-22T13:49:39.762Z,9.70
2023-02-22T13:52:12.194Z,9.15
2023-02-22T13:54:43.323Z,12.85
2023-02-22T13:57:19.187Z,3.55
2023-02-22T13:59:47.535Z,4.95
2023-02-22T14:02:30.713Z,4.25
2023-02-22T14:04:58.988Z,4.82
2023-02-22T14:07:58.112Z,2.88
2023-02-22T14:10:41.234Z,2.28
2023-02-22T14:13:11.480Z,5.05
2023-02-22T14:16:04.608Z,6.78
2023-02-22T14:18:37.295Z,3.53
2023-02-22T14:21:07.388Z,5.38
2023-02-22T14:23:36.501Z,3.53
2023-02-22T14:26:11.825Z,3.08
2023-02-22T14:28:43.028Z,3.95
2023-02-22T14:31:25.537Z,4.45
2023-02-22T14:34:14.910Z,3.90
2023-02-22T14:36:46.038Z,3.40
2023-02-22T14:39:17.357Z,3.10
2023-02-22T14:41:53.340Z,6.50
2023-02-22T14:44:25.161Z,3.97
2023-02-22T14:46:55.243Z,3.60
2023-02-22T14:49:28.528Z,4.65
2023-02-22T14:51:59.342Z,7.35
2023-02-22T14:54:30.202Z,5.78
2023-02-22T14:57:14.862Z,5.65
2023-02-22T14:59:51.869Z,11.65
2023-02-22T15:02:21.968Z,6.65
2023-02-22T15:04:56.663Z,10.20
2023-02-22T15:07:27.846Z,7.03
2023-02-22T15:10:17.710Z,6.15
2023-02-22T15:12:52.462Z,7.45
2023-02-22T15:15:22.321Z,16.48
2023-02-22T15:17:56.920Z,18.13
2023-02-22T15:20:26.906Z,11.48
2023-02-22T15:23:00.069Z,13.73
2023-02-22T15:25:30.755Z,17.45
2023-02-22T15:28:02.879Z,21.55
2023-02-22T15:30:34.149Z,16.15
2023-02-22T15:33:12.337Z,38.38
2023-02-22T15:35:42.085Z,69.47
2023-02-22T15:38:20.192Z,78.25
2023-02-22T15:40:50.804Z,28.38
2023-02-22T15:43:20.106Z,20.08
2023-02-22T15:45:51.150Z,16.75
2023-02-22T15:48:19.467Z,18.35
2023-02-22T15:51:09.223Z,17.15
2023-02-22T15:53:43.205Z,13.10
2023-02-22T15:56:14.646Z,11.02
2023-02-22T15:58:43.419Z,8.48
2023-02-22T16:01:14.356Z,9.70
2023-02-22T16:03:47.206Z,13.57
2023-02-22T16:06:28.983Z,16.02
2023-02-22T16:08:57.984Z,55.72
2023-02-22T16:11:31.185Z,23.48
2023-02-22T16:14:02.112Z,22.05
2023-02-22T16:16:32.464Z,15.68
2023-02-22T16:19:19.453Z,13.98
2023-02-22T16:21:58.396Z,11.07
2023-02-22T16:24:27.473Z,11.18
2023-02-22T16:27:17.385Z,17.90
2023-02-22T16:29:45.590Z,13.65
2023-02-22T16:32:15.560Z,13.03
2023-02-22T16:34:43.614Z,16.70
2023-02-22T16:37:23.688Z,17.08
2023-02-22T16:39:52.442Z,20.75
2023-02-22T16:42:24.371Z,20.48
2023-02-22T16:44:53.224Z,19.27
2023-02-22T16:47:22.361Z,15.68
2023-02-22T16:49:52.861Z,16.77
2023-02-22T16:52:22.669Z,17.38
2023-02-22T16:54:53.133Z,18.55
2023-02-22T16:57:22.859Z,19.08
2023-02-22T17:02:20.976Z,13.68
2023-02-22T17:04:49.523Z,11.18
2023-02-22T17:07:24.153Z,15.98
2023-02-22T17:09:52.421Z,15.93
2023-02-22T17:12:20.741Z,14.70
2023-02-22T17:14:49.018Z,16.30
2023-02-22T17:17:17.717Z,14.82
2023-02-22T17:19:45.656Z,14.43
2023-02-22T17:22:18.076Z,23.83
2023-02-22T17:24:48.131Z,17.83
2023-02-22T17:27:16.356Z,14.48
2023-02-22T17:29:45.139Z,17.67
2023-02-22T17:32:14.111Z,16.02
2023-02-22T17:34:42.180Z,16.00
2023-02-22T17:37:10.574Z,13.05
2023-02-22T17:39:38.755Z,13.98
2023-02-22T17:42:08.751Z,11.48
2023-02-22T17:44:36.760Z,24.20
2023-02-22T17:47:06.282Z,22.67
2023-02-22T17:49:34.187Z,29.48
2023-02-22T17:52:08.515Z,24.70
2023-02-22T17:54:36.489Z,30.73
2023-02-22T17:57:04.768Z,14.77
2023-02-22T17:59:34.445Z,17.20
2023-02-22T18:02:03.429Z,20.58
2023-02-22T18:04:33.515Z,19.45
2023-02-22T18:07:01.797Z,14.70
2023-02-22T18:09:29.851Z,23.08
2023-02-22T18:11:58.124Z,15.95
2023-02-22T18:14:26.101Z,15.35
2023-02-22T18:16:55.657Z,15.98
2023-02-22T18:19:23.568Z,19.38
2023-02-22T18:21:53.664Z,21.45
2023-02-22T18:24:21.773Z,21.10
2023-02-22T18:26:50.742Z,22.73
2023-02-22T18:29:18.729Z,15.73
2023-02-22T18:31:47.010Z,14.60
2023-02-22T18:34:19.442Z,14.38
2023-02-22T18:36:48.673Z,18.73
2023-02-22T18:39:16.577Z,13.32
2023-02-22T18:41:48.881Z,11.65
2023-02-22T18:44:16.874Z,13.25
2023-02-22T18:46:45.362Z,12.63
2023-02-22T18:49:14.521Z,11.23
2023-02-22T18:51:46.082Z,10.65
2023-02-22T18:54:14.144Z,13.30
2023-02-22T18:56:42.429Z,14.05
2023-02-22T18:59:12.589Z,13.73
2023-02-22T19:01:41.867Z,9.98
2023-02-22T19:04:12.864Z,12.95
2023-02-22T19:09:10.724Z,8.82
2023-02-22T19:11:40.859Z,9.30
2023-02-22T19:14:09.656Z,10.90
2023-02-22T19:16:38.331Z,12.07
2023-02-22T19:19:07.564Z,24.23
2023-02-22T19:21:36.612Z,17.43
2023-02-22T19:24:05.650Z,20.10
2023-02-22T19:26:35.625Z,15.90
2023-02-22T19:29:08.499Z,17.05
2023-02-22T19:31:38.898Z,20.58
2023-02-22T19:34:09.593Z,18.73
2023-02-22T19:36:39.447Z,21.73
2023-02-22T19:39:09.762Z,15.82
2023-02-22T19:41:41.287Z,17.85
2023-02-22T19:44:09.412Z,17.63
2023-02-22T19:46:37.852Z,25.60
2023-02-22T19:49:06.356Z,21.42
2023-02-22T19:51:34.691Z,17.88
2023-02-22T19:54:03.640Z,18.58
2023-02-22T19:56:32.337Z,20.58
2023-02-22T20:01:33.453Z,18.23
2023-02-22T20:04:04.405Z,15.48
2023-02-22T20:06:35.134Z,13.45
2023-02-22T20:09:03.907Z,13.52
2023-02-22T20:11:32.157Z,13.52
2023-02-22T20:14:01.207Z,16.90
2023-02-22T20:16:30.488Z,14.20
2023-02-22T20:18:59.976Z,18.27
2023-02-22T20:21:31.055Z,20.35
2023-02-22T20:23:59.432Z,20.98
2023-02-22T20:26:28.544Z,18.08
2023-02-22T20:28:56.956Z,17.35
2023-02-22T20:31:27.853Z,19.75
2023-02-22T20:33:57.093Z,21.08
2023-02-22T20:36:28.458Z,20.35
2023-02-22T20:38:56.987Z,20.70
2023-02-22T20:41:26.255Z,17.88
2023-02-22T20:43:55.479Z,20.45
2023-02-22T20:48:54.967Z,18.73
2023-02-22T20:51:23.257Z,23.75
2023-02-22T20:53:52.910Z,23.40
2023-02-22T20:56:23.169Z,22.60
2023-02-22T20:58:51.785Z,23.52
2023-02-22T21:03:49.817Z,23.88
2023-02-22T21:06:18.810Z,19.25
2023-02-22T21:08:50.613Z,20.13
2023-02-22T21:11:20.806Z,17.50
2023-02-22T21:13:48.837Z,18.20
2023-02-22T21:16:19.566Z,22.75
2023-02-22T21:18:47.747Z,16.52
2023-02-22T21:21:16.508Z,21.33
2023-02-22T21:23:44.670Z,22.38
2023-02-22T21:26:15.740Z,24.55
2023-02-22T21:28:51.242Z,21.33
2023-02-22T21:31:20.739Z,24.25
2023-02-22T21:33:49.772Z,19.98
2023-02-22T21:36:18.291Z,18.88
2023-02-22T21:38:48.468Z,22.60
2023-02-22T21:41:18.011Z,20.77
2023-02-22T21:43:49.845Z,22.55
2023-02-22T21:46:18.408Z,23.17
2023-02-22T21:48:48.931Z,21.73
2023-02-22T21:51:18.216Z,20.80
2023-02-22T21:53:47.041Z,20.30
2023-02-22T21:56:16.505Z,20.40
2023-02-22T21:58:44.589Z,22.20
2023-02-22T22:01:17.571Z,24.73
2023-02-22T22:03:46.316Z,27.83
2023-02-22T22:06:15.078Z,26.50
2023-02-22T22:08:46.143Z,23.13
2023-02-22T22:11:17.872Z,25.77
2023-02-22T22:13:46.096Z,28.20
2023-02-22T22:16:16.800Z,24.80
2023-02-22T22:18:45.839Z,26.42
2023-02-22T22:21:16.656Z,27.30
2023-02-22T22:23:46.762Z,24.80
2023-02-22T22:26:16.453Z,29.23
2023-02-22T22:31:17.560Z,24.05
2023-02-22T22:33:46.303Z,26.27
2023-02-22T22:36:16.701Z,26.80
2023-02-22T22:38:47.052Z,30.50
2023-02-22T22:41:16.156Z,21.80
2023-02-22T22:43:46.264Z,31.70
2023-02-22T22:46:15.406Z,23.83
2023-02-22T22:48:47.486Z,24.70
2023-02-22T22:51:18.439Z,24.45
2023-02-22T22:53:47.827Z,24.88
2023-02-22T22:58:44.478Z,25.20
2023-02-22T23:01:19.275Z,22.80
2023-02-22T23:03:55.102Z,26.02
2023-02-22T23:06:25.970Z,24.95
2023-02-22T23:09:00.084Z,30.77
2023-02-22T23:11:29.115Z,24.45
2023-02-22T23:13:57.628Z,22.98
2023-02-22T23:16:26.230Z,26.17
2023-02-22T23:18:55.934Z,26.87
2023-02-22T23:21:24.438Z,24.88
2023-02-22T23:23:55.749Z,26.30
2023-02-22T23:26:26.864Z,23.35
2023-02-22T23:28:56.181Z,28.45
2023-02-22T23:31:24.911Z,28.98
2023-02-22T23:33:53.052Z,28.83
2023-02-22T23:36:23.027Z,25.95
2023-02-22T23:38:50.988Z,26.00
2023-02-22T23:41:19.545Z,23.63
2023-02-22T23:43:47.599Z,25.50
2023-02-22T23:46:18.579Z,23.38
2023-02-22T23:48:50.707Z,25.85
2023-02-22T23:51:20.994Z,27.15
2023-02-22T23:53:50.382Z,27.45
2023-02-22T23:56:21.984Z,25.02
2023-02-22T23:58:51.908Z,23.80
